sensor_id;sensor_type;location;lat;lon;timestamp;pressure;altitude;pressure_sealevel;temperature;humidity
48630;BME280;34426;52.180;4.462;2024-01-30T00:01:24;102594.53;;;8.54;100.00
48630;BME280;34426;52.180;4.462;2024-01-30T00:03:50;102601.19;;;8.46;100.00
48630;BME280;34426;52.180;4.462;2024-01-30T00:06:18;102611.72;;;8.64;100.00
48630;BME280;34426;52.180;4.462;2024-01-30T00:08:43;102614.94;;;8.67;100.00
48630;BME280;34426;52.180;4.462;2024-01-30T00:11:09;102620.72;;;8.73;100.00
48630;BME280;34426;52.180;4.462;2024-01-30T00:13:34;102616.88;;;8.74;100.00
48630;BME280;34426;52.180;4.462;2024-01-30T00:16:01;102609.56;;;8.73;100.00
48630;BME280;34426;52.180;4.462;2024-01-30T00:18:26;102603.75;;;8.67;100.00
48630;BME280;34426;52.180;4.462;2024-01-30T00:20:52;102603.34;;;8.71;100.00
48630;BME280;34426;52.180;4.462;2024-01-30T00:23:17;102597.13;;;8.68;100.00
48630;BME280;34426;52.180;4.462;2024-01-30T00:25:43;102595.41;;;8.67;100.00
48630;BME280;34426;52.180;4.462;2024-01-30T00:28:08;102596.25;;;8.55;100.00
48630;BME280;34426;52.180;4.462;2024-01-30T00:30:34;102594.97;;;8.57;100.00
48630;BME280;34426;52.180;4.462;2024-01-30T00:33:00;102591.53;;;8.68;100.00
48630;BME280;34426;52.180;4.462;2024-01-30T00:35:26;102600.13;;;8.67;100.00
48630;BME280;34426;52.180;4.462;2024-01-30T00:37:51;102605.50;;;8.75;100.00
48630;BME280;34426;52.180;4.462;2024-01-30T00:40:17;102607.44;;;8.81;100.00
48630;BME280;34426;52.180;4.462;2024-01-30T00:42:42;102608.94;;;8.77;100.00
48630;BME280;34426;52.180;4.462;2024-01-30T00:45:12;102608.28;;;8.82;100.00
48630;BME280;34426;52.180;4.462;2024-01-30T00:47:37;102590.91;;;8.80;100.00
48630;BME280;34426;52.180;4.462;2024-01-30T00:50:05;102598.00;;;8.82;100.00
48630;BME280;34426;52.180;4.462;2024-01-30T00:52:30;102621.59;;;8.86;100.00
48630;BME280;34426;52.180;4.462;2024-01-30T00:54:56;102606.59;;;8.94;100.00
48630;BME280;34426;52.180;4.462;2024-01-30T00:57:21;102608.28;;;8.82;100.00
48630;BME280;34426;52.180;4.462;2024-01-30T00:59:47;102613.88;;;8.88;100.00
48630;BME280;34426;52.180;4.462;2024-01-30T01:02:12;102613.88;;;8.88;100.00
48630;BME280;34426;52.180;4.462;2024-01-30T01:04:38;102603.78;;;8.81;100.00
48630;BME280;34426;52.180;4.462;2024-01-30T01:07:05;102597.97;;;8.76;100.00
48630;BME280;34426;52.180;4.462;2024-01-30T01:09:30;102597.13;;;8.68;100.00
48630;BME280;34426;52.180;4.462;2024-01-30T01:11:55;102598.84;;;8.83;100.00
48630;BME280;34426;52.180;4.462;2024-01-30T01:14:21;102603.56;;;8.82;100.00
48630;BME280;34426;52.180;4.462;2024-01-30T01:16:46;102594.13;;;8.77;100.00
48630;BME280;34426;52.180;4.462;2024-01-30T01:19:12;102595.41;;;8.67;100.00
48630;BME280;34426;52.180;4.462;2024-01-30T01:21:37;102579.53;;;8.61;100.00
48630;BME280;34426;52.180;4.462;2024-01-30T01:24:04;102582.53;;;8.60;100.00
48630;BME280;34426;52.180;4.462;2024-01-30T01:26:30;102576.75;;;8.75;100.00
48630;BME280;34426;52.180;4.462;2024-01-30T01:28:55;102570.53;;;8.66;100.00
48630;BME280;34426;52.180;4.462;2024-01-30T01:31:21;102570.09;;;8.76;100.00
48630;BME280;34426;52.180;4.462;2024-01-30T01:33:46;102569.44;;;8.80;100.00
48630;BME280;34426;52.180;4.462;2024-01-30T01:36:13;102554.63;;;8.73;100.00
48630;BME280;34426;52.180;4.462;2024-01-30T01:38:38;102557.00;;;8.76;100.00
48630;BME280;34426;52.180;4.462;2024-01-30T01:41:05;102556.34;;;8.81;100.00
48630;BME280;34426;52.180;4.462;2024-01-30T01:43:31;102565.34;;;8.70;100.00
48630;BME280;34426;52.180;4.462;2024-01-30T01:45:56;102573.09;;;8.67;100.00
48630;BME280;34426;52.180;4.462;2024-01-30T01:48:22;102570.09;;;8.76;100.00
48630;BME280;34426;52.180;4.462;2024-01-30T01:50:47;102569.66;;;8.72;100.00
48630;BME280;34426;52.180;4.462;2024-01-30T01:53:13;102572.47;;;8.65;100.00
48630;BME280;34426;52.180;4.462;2024-01-30T01:55:40;102564.94;;;8.73;100.00
48630;BME280;34426;52.180;4.462;2024-01-30T01:58:07;102564.97;;;8.66;100.00
48630;BME280;34426;52.180;4.462;2024-01-30T02:00:34;102559.16;;;8.54;100.00
48630;BME280;34426;52.180;4.462;2024-01-30T02:03:00;102562.56;;;8.70;100.00
48630;BME280;34426;52.180;4.462;2024-01-30T02:05:26;102570.75;;;8.64;100.00
48630;BME280;34426;52.180;4.462;2024-01-30T02:07:52;102580.59;;;8.74;100.00
48630;BME280;34426;52.180;4.462;2024-01-30T02:10:17;102581.44;;;8.67;100.00
48630;BME280;34426;52.180;4.462;2024-01-30T02:12:43;102565.38;;;8.63;100.00
48630;BME280;34426;52.180;4.462;2024-01-30T02:15:13;102556.81;;;8.64;100.00
48630;BME280;34426;52.180;4.462;2024-01-30T02:17:39;102555.94;;;8.64;100.00
48630;BME280;34426;52.180;4.462;2024-01-30T02:20:05;102563.22;;;8.58;100.00
48630;BME280;34426;52.180;4.462;2024-01-30T02:22:33;102564.31;;;8.57;100.00
48630;BME280;34426;52.180;4.462;2024-01-30T02:24:59;102566.00;;;8.72;100.00
48630;BME280;34426;52.180;4.462;2024-01-30T02:27:24;102563.00;;;8.80;100.00
48630;BME280;34426;52.180;4.462;2024-01-30T02:29:50;102567.97;;;8.64;100.00
48630;BME280;34426;52.180;4.462;2024-01-30T02:32:15;102562.78;;;8.68;100.00
48630;BME280;34426;52.180;4.462;2024-01-30T02:34:41;102555.94;;;8.57;100.00
48630;BME280;34426;52.180;4.462;2024-01-30T02:37:06;102565.78;;;8.66;100.00
48630;BME280;34426;52.180;4.462;2024-01-30T02:39:33;102547.34;;;8.59;100.00
48630;BME280;34426;52.180;4.462;2024-01-30T02:41:59;102554.44;;;8.61;100.00
48630;BME280;34426;52.180;4.462;2024-01-30T02:44:24;102542.84;;;8.51;100.00
48630;BME280;34426;52.180;4.462;2024-01-30T02:46:50;102532.09;;;8.48;100.00
48630;BME280;34426;52.180;4.462;2024-01-30T02:49:15;102527.16;;;8.44;100.00
48630;BME280;34426;52.180;4.462;2024-01-30T02:51:40;102526.28;;;8.37;100.00
48630;BME280;34426;52.180;4.462;2024-01-30T02:54:06;102535.53;;;8.37;100.00
48630;BME280;34426;52.180;4.462;2024-01-30T02:56:33;102529.31;;;8.42;100.00
48630;BME280;34426;52.180;4.462;2024-01-30T02:58:58;102522.47;;;8.51;100.00
48630;BME280;34426;52.180;4.462;2024-01-30T03:01:24;102515.16;;;8.43;100.00
48630;BME280;34426;52.180;4.462;2024-01-30T03:03:49;102523.53;;;8.50;100.00
48630;BME280;34426;52.180;4.462;2024-01-30T03:06:14;102521.59;;;8.57;100.00
48630;BME280;34426;52.180;4.462;2024-01-30T03:08:40;102514.94;;;8.71;100.00
48630;BME280;34426;52.180;4.462;2024-01-30T03:11:05;102513.69;;;8.60;100.00
48630;BME280;34426;52.180;4.462;2024-01-30T03:13:32;102519.25;;;8.60;100.00
48630;BME280;34426;52.180;4.462;2024-01-30T03:15:58;102524.41;;;8.63;100.00
48630;BME280;34426;52.180;4.462;2024-01-30T03:18:23;102525.03;;;8.72;100.00
48630;BME280;34426;52.180;4.462;2024-01-30T03:20:48;102516.44;;;8.74;100.00
48630;BME280;34426;52.180;4.462;2024-01-30T03:23:14;102526.94;;;8.72;100.00
48630;BME280;34426;52.180;4.462;2024-01-30T03:25:39;102534.69;;;8.70;100.00
48630;BME280;34426;52.180;4.462;2024-01-30T03:28:05;102525.44;;;8.76;100.00
48630;BME280;34426;52.180;4.462;2024-01-30T03:30:32;102524.16;;;8.78;100.00
48630;BME280;34426;52.180;4.462;2024-01-30T03:32:57;102525.44;;;8.76;100.00
48630;BME280;34426;52.180;4.462;2024-01-30T03:35:23;102517.28;;;8.81;100.00
48630;BME280;34426;52.180;4.462;2024-01-30T03:37:48;102524.16;;;8.85;100.00
48630;BME280;34426;52.180;4.462;2024-01-30T03:40:14;102520.31;;;8.86;100.00
48630;BME280;34426;52.180;4.462;2024-01-30T03:42:39;102517.28;;;8.87;100.00
48630;BME280;34426;52.180;4.462;2024-01-30T03:45:06;102511.28;;;8.90;100.00
48630;BME280;34426;52.180;4.462;2024-01-30T03:47:32;102505.06;;;8.82;100.00
48630;BME280;34426;52.180;4.462;2024-01-30T03:49:58;102503.78;;;8.78;100.00
48630;BME280;34426;52.180;4.462;2024-01-30T03:52:23;102498.41;;;8.76;100.00
48630;BME280;34426;52.180;4.462;2024-01-30T03:54:49;102506.13;;;8.74;100.00
48630;BME280;34426;52.180;4.462;2024-01-30T03:57:14;102497.13;;;8.72;100.00
48630;BME280;34426;52.180;4.462;2024-01-30T03:59:41;102507.84;;;8.75;100.00
48630;BME280;34426;52.180;4.462;2024-01-30T04:02:07;102511.06;;;8.79;100.00
48630;BME280;34426;52.180;4.462;2024-01-30T04:04:33;102500.78;;;8.86;100.00
48630;BME280;34426;52.180;4.462;2024-01-30T04:06:59;102500.34;;;8.89;100.00
48630;BME280;34426;52.180;4.462;2024-01-30T04:09:24;102507.00;;;8.88;100.00
48630;BME280;34426;52.180;4.462;2024-01-30T04:11:50;102509.78;;;8.88;100.00
48630;BME280;34426;52.180;4.462;2024-01-30T04:14:15;102513.44;;;8.95;100.00
48630;BME280;34426;52.180;4.462;2024-01-30T04:16:41;102505.28;;;8.93;100.00
48630;BME280;34426;52.180;4.462;2024-01-30T04:19:06;102499.25;;;8.96;100.00
48630;BME280;34426;52.180;4.462;2024-01-30T04:21:33;102492.81;;;8.83;100.00
48630;BME280;34426;52.180;4.462;2024-01-30T04:23:58;102493.91;;;8.82;100.00
48630;BME280;34426;52.180;4.462;2024-01-30T04:26:24;102494.13;;;8.87;100.00
48630;BME280;34426;52.180;4.462;2024-01-30T04:28:49;102489.59;;;8.92;100.00
48630;BME280;34426;52.180;4.462;2024-01-30T04:31:15;102479.94;;;8.95;100.00
48630;BME280;34426;52.180;4.462;2024-01-30T04:33:40;102488.53;;;9.00;100.00
48630;BME280;34426;52.180;4.462;2024-01-30T04:36:08;102482.94;;;9.07;100.00
48630;BME280;34426;52.180;4.462;2024-01-30T04:38:35;102483.78;;;9.07;100.00
48630;BME280;34426;52.180;4.462;2024-01-30T04:41:00;102474.34;;;9.08;100.00
48630;BME280;34426;52.180;4.462;2024-01-30T04:43:26;102482.66;;;9.21;100.00
48630;BME280;34426;52.180;4.462;2024-01-30T04:45:51;102482.44;;;9.23;100.00
48630;BME280;34426;52.180;4.462;2024-01-30T04:48:17;102468.25;;;9.24;100.00
48630;BME280;34426;52.180;4.462;2024-01-30T04:50:42;102467.81;;;9.27;100.00
48630;BME280;34426;52.180;4.462;2024-01-30T04:53:08;102474.69;;;9.25;100.00
48630;BME280;34426;52.180;4.462;2024-01-30T04:55:35;102470.19;;;9.30;100.00
48630;BME280;34426;52.180;4.462;2024-01-30T04:58:00;102476.63;;;9.31;100.00
48630;BME280;34426;52.180;4.462;2024-01-30T05:00:26;102468.22;;;9.38;100.00
48630;BME280;34426;52.180;4.462;2024-01-30T05:02:51;102479.41;;;9.31;100.00
48630;BME280;34426;52.180;4.462;2024-01-30T05:05:17;102476.81;;;9.36;100.00
48630;BME280;34426;52.180;4.462;2024-01-30T05:07:42;102481.97;;;9.39;100.00
48630;BME280;34426;52.180;4.462;2024-01-30T05:10:08;102480.00;;;9.46;100.00
48630;BME280;34426;52.180;4.462;2024-01-30T05:12:35;102481.72;;;9.47;100.00
48630;BME280;34426;52.180;4.462;2024-01-30T05:15:01;102480.22;;;9.45;100.00
48630;BME280;34426;52.180;4.462;2024-01-30T05:17:26;102477.63;;;9.50;100.00
48630;BME280;34426;52.180;4.462;2024-01-30T05:19:52;102473.69;;;9.57;100.00
48630;BME280;34426;52.180;4.462;2024-01-30T05:22:17;102475.00;;;9.55;100.00
48630;BME280;34426;52.180;4.462;2024-01-30T05:24:42;102480.78;;;9.60;100.00
48630;BME280;34426;52.180;4.462;2024-01-30T05:27:08;102471.09;;;9.62;100.00
48630;BME280;34426;52.180;4.462;2024-01-30T05:29:35;102480.09;;;9.71;100.00
48630;BME280;34426;52.180;4.462;2024-01-30T05:32:00;102475.59;;;9.70;100.00
48630;BME280;34426;52.180;4.462;2024-01-30T05:34:26;102477.94;;;9.73;100.00
48630;BME280;34426;52.180;4.462;2024-01-30T05:36:51;102471.91;;;9.76;100.00
48630;BME280;34426;52.180;4.462;2024-01-30T05:39:16;102473.63;;;9.77;100.00
48630;BME280;34426;52.180;4.462;2024-01-30T05:41:42;102461.63;;;9.70;100.00
48630;BME280;34426;52.180;4.462;2024-01-30T05:44:07;102458.81;;;9.70;100.00
48630;BME280;34426;52.180;4.462;2024-01-30T05:46:35;102458.59;;;9.72;100.00
48630;BME280;34426;52.180;4.462;2024-01-30T05:49:01;102461.63;;;9.70;100.00
48630;BME280;34426;52.180;4.462;2024-01-30T05:51:26;102464.59;;;9.75;100.00
48630;BME280;34426;52.180;4.462;2024-01-30T05:53:52;102466.31;;;9.76;100.00
48630;BME280;34426;52.180;4.462;2024-01-30T05:56:17;102466.34;;;9.70;100.00
48630;BME280;34426;52.180;4.462;2024-01-30T05:58:43;102471.94;;;9.70;100.00
48630;BME280;34426;52.180;4.462;2024-01-30T06:01:08;102471.28;;;9.67;100.00
48630;BME280;34426;52.180;4.462;2024-01-30T06:03:35;102473.66;;;9.71;100.00
48630;BME280;34426;52.180;4.462;2024-01-30T06:06:01;102469.13;;;9.70;100.00
48630;BME280;34426;52.180;4.462;2024-01-30T06:08:26;102477.09;;;9.66;100.00
48630;BME280;34426;52.180;4.462;2024-01-30T06:10:52;102476.88;;;9.67;100.00
48630;BME280;34426;52.180;4.462;2024-01-30T06:13:17;102484.41;;;9.67;100.00
48630;BME280;34426;52.180;4.462;2024-01-30T06:15:43;102480.56;;;9.61;100.00
48630;BME280;34426;52.180;4.462;2024-01-30T06:18:08;102482.25;;;9.69;100.00
48630;BME280;34426;52.180;4.462;2024-01-30T06:20:36;102485.50;;;9.66;100.00
48630;BME280;34426;52.180;4.462;2024-01-30T06:23:01;102480.09;;;9.71;100.00
48630;BME280;34426;52.180;4.462;2024-01-30T06:25:26;102478.00;;;9.60;100.00
48630;BME280;34426;52.180;4.462;2024-01-30T06:27:52;102483.78;;;9.65;100.00
48630;BME280;34426;52.180;4.462;2024-01-30T06:30:18;102486.97;;;9.68;100.00
48630;BME280;34426;52.180;4.462;2024-01-30T06:32:43;102482.44;;;9.74;100.00
48630;BME280;34426;52.180;4.462;2024-01-30T06:35:09;102478.81;;;9.67;100.00
48630;BME280;34426;52.180;4.462;2024-01-30T06:37:36;102476.22;;;9.72;100.00
48630;BME280;34426;52.180;4.462;2024-01-30T06:40:01;102479.47;;;9.69;100.00
48630;BME280;34426;52.180;4.462;2024-01-30T06:42:26;102482.25;;;9.69;100.00
48630;BME280;34426;52.180;4.462;2024-01-30T06:44:52;102477.75;;;9.68;100.00
48630;BME280;34426;52.180;4.462;2024-01-30T06:47:18;102485.25;;;9.74;100.00
48630;BME280;34426;52.180;4.462;2024-01-30T06:49:43;102488.22;;;9.79;100.00
48630;BME280;34426;52.180;4.462;2024-01-30T06:52:08;102492.09;;;9.78;100.00
48630;BME280;34426;52.180;4.462;2024-01-30T06:54:35;102485.84;;;9.83;100.00
48630;BME280;34426;52.180;4.462;2024-01-30T06:57:01;102497.22;;;9.88;100.00
48630;BME280;34426;52.180;4.462;2024-01-30T06:59:26;102490.31;;;9.90;100.00
48630;BME280;34426;52.180;4.462;2024-01-30T07:01:52;102492.94;;;9.85;100.00
48630;BME280;34426;52.180;4.462;2024-01-30T07:04:17;102494.16;;;9.96;100.00
48630;BME280;34426;52.180;4.462;2024-01-30T07:06:42;102493.31;;;9.95;100.00
48630;BME280;34426;52.180;4.462;2024-01-30T07:09:08;102499.69;;;10.02;100.00
48630;BME280;34426;52.180;4.462;2024-01-30T07:11:35;102492.78;;;10.05;100.00
48630;BME280;34426;52.180;4.462;2024-01-30T07:14:00;102494.50;;;10.06;100.00
48630;BME280;34426;52.180;4.462;2024-01-30T07:16:26;102518.56;;;10.14;100.00
48630;BME280;34426;52.180;4.462;2024-01-30T07:18:51;102511.44;;;10.18;100.00
48630;BME280;34426;52.180;4.462;2024-01-30T07:21:17;102511.25;;;10.19;100.00
48630;BME280;34426;52.180;4.462;2024-01-30T07:23:42;102520.03;;;10.23;100.00
48630;BME280;34426;52.180;4.462;2024-01-30T07:26:08;102519.81;;;10.24;100.00
48630;BME280;34426;52.180;4.462;2024-01-30T07:28:35;102522.16;;;10.27;100.00
48630;BME280;34426;52.180;4.462;2024-01-30T07:31:01;102521.31;;;10.27;100.00
48630;BME280;34426;52.180;4.462;2024-01-30T07:33:26;102518.06;;;10.30;100.00
48630;BME280;34426;52.180;4.462;2024-01-30T07:35:52;102525.38;;;10.31;100.00
48630;BME280;34426;52.180;4.462;2024-01-30T07:38:17;102526.00;;;10.33;100.00
48630;BME280;34426;52.180;4.462;2024-01-30T07:40:43;102539.53;;;10.36;100.00
48630;BME280;34426;52.180;4.462;2024-01-30T07:43:08;102541.25;;;10.37;100.00
48630;BME280;34426;52.180;4.462;2024-01-30T07:45:35;102528.13;;;10.38;100.00
48630;BME280;34426;52.180;4.462;2024-01-30T07:48:01;102541.25;;;10.37;100.00
48630;BME280;34426;52.180;4.462;2024-01-30T07:50:26;102539.31;;;10.38;100.00
48630;BME280;34426;52.180;4.462;2024-01-30T07:52:52;102549.41;;;10.39;100.00
48630;BME280;34426;52.180;4.462;2024-01-30T07:55:17;102540.16;;;10.38;100.00
48630;BME280;34426;52.180;4.462;2024-01-30T07:57:43;102539.53;;;10.36;100.00
48630;BME280;34426;52.180;4.462;2024-01-30T08:00:09;102532.22;;;10.35;100.00
48630;BME280;34426;52.180;4.462;2024-01-30T08:02:39;102550.31;;;10.32;100.00
48630;BME280;34426;52.180;4.462;2024-01-30T08:05:05;102552.66;;;10.36;100.00
48630;BME280;34426;52.180;4.462;2024-01-30T08:07:30;102550.72;;;10.36;100.00
48630;BME280;34426;52.180;4.462;2024-01-30T08:09:56;102569.22;;;10.37;100.00
48630;BME280;34426;52.180;4.462;2024-01-30T08:12:21;102568.16;;;10.38;100.00
48630;BME280;34426;52.180;4.462;2024-01-30T08:14:47;102562.78;;;10.37;100.00
48630;BME280;34426;52.180;4.462;2024-01-30T08:17:12;102567.50;;;10.36;100.00
48630;BME280;34426;52.180;4.462;2024-01-30T08:19:39;102569.66;;;10.34;100.00
48630;BME280;34426;52.180;4.462;2024-01-30T08:22:04;102563.84;;;10.36;100.00
48630;BME280;34426;52.180;4.462;2024-01-30T08:24:30;102566.22;;;10.39;100.00
48630;BME280;34426;52.180;4.462;2024-01-30T08:26:55;102569.38;;;10.42;100.00
48630;BME280;34426;52.180;4.462;2024-01-30T08:29:21;102557.09;;;10.43;100.00
48630;BME280;34426;52.180;4.462;2024-01-30T08:31:46;102559.03;;;10.43;100.00
48630;BME280;34426;52.180;4.462;2024-01-30T08:34:12;102559.47;;;10.46;100.00
48630;BME280;34426;52.180;4.462;2024-01-30T08:36:39;102559.69;;;10.45;100.00
48630;BME280;34426;52.180;4.462;2024-01-30T08:39:05;102584.63;;;10.46;100.00
48630;BME280;34426;52.180;4.462;2024-01-30T08:41:31;102590.69;;;10.43;100.00
48630;BME280;34426;52.180;4.462;2024-01-30T08:43:56;102583.38;;;10.42;100.00
48630;BME280;34426;52.180;4.462;2024-01-30T08:46:22;102583.84;;;10.39;100.00
48630;BME280;34426;52.180;4.462;2024-01-30T08:48:47;102580.19;;;10.39;100.00
48630;BME280;34426;52.180;4.462;2024-01-30T08:51:13;102578.69;;;10.36;100.00
48630;BME280;34426;52.180;4.462;2024-01-30T08:53:40;102586.88;;;10.38;100.00
48630;BME280;34426;52.180;4.462;2024-01-30T08:56:06;102578.69;;;10.36;100.00
48630;BME280;34426;52.180;4.462;2024-01-30T08:58:32;102579.78;;;10.35;100.00
48630;BME280;34426;52.180;4.462;2024-01-30T09:00:58;102601.06;;;10.36;100.00
48630;BME280;34426;52.180;4.462;2024-01-30T09:03:24;102590.75;;;10.37;100.00
48630;BME280;34426;52.180;4.462;2024-01-30T09:05:49;102577.84;;;10.36;100.00
48630;BME280;34426;52.180;4.462;2024-01-30T09:08:15;102591.19;;;10.33;100.00
48630;BME280;34426;52.180;4.462;2024-01-30T09:10:41;102591.00;;;10.28;100.00
48630;BME280;34426;52.180;4.462;2024-01-30T09:13:07;102605.22;;;10.27;100.00
48630;BME280;34426;52.180;4.462;2024-01-30T09:15:32;102595.13;;;10.19;100.00
48630;BME280;34426;52.180;4.462;2024-01-30T09:17:58;102608.47;;;10.11;100.00
48630;BME280;34426;52.180;4.462;2024-01-30T09:20:23;102621.38;;;10.12;100.00
48630;BME280;34426;52.180;4.462;2024-01-30T09:22:49;102627.44;;;10.02;100.00
48630;BME280;34426;52.180;4.462;2024-01-30T09:25:14;102639.47;;;10.02;100.00
48630;BME280;34426;52.180;4.462;2024-01-30T09:27:41;102648.94;;;10.01;100.00
48630;BME280;34426;52.180;4.462;2024-01-30T09:30:07;102635.66;;;9.90;100.00
48630;BME280;34426;52.180;4.462;2024-01-30T09:32:33;102641.91;;;9.86;100.00
48630;BME280;34426;52.180;4.462;2024-01-30T09:34:58;102633.97;;;9.76;100.00
48630;BME280;34426;52.180;4.462;2024-01-30T09:37:24;102629.91;;;9.59;100.00
48630;BME280;34426;52.180;4.462;2024-01-30T09:39:49;102652.09;;;9.47;100.00
48630;BME280;34426;52.180;4.462;2024-01-30T09:42:22;102675.53;;;9.46;100.00
48630;BME280;34426;52.180;4.462;2024-01-30T09:44:53;102679.16;;;9.40;100.00
48630;BME280;34426;52.180;4.462;2024-01-30T09:47:19;102652.53;;;9.38;100.00
48630;BME280;34426;52.180;4.462;2024-01-30T09:49:44;102666.06;;;9.41;100.00
48630;BME280;34426;52.180;4.462;2024-01-30T09:52:11;102680.88;;;9.34;100.00
48630;BME280;34426;52.180;4.462;2024-01-30T09:54:38;102671.88;;;9.32;100.00
48630;BME280;34426;52.180;4.462;2024-01-30T09:57:04;102675.72;;;9.31;100.00
48630;BME280;34426;52.180;4.462;2024-01-30T09:59:29;102656.41;;;9.30;100.00
48630;BME280;34426;52.180;4.462;2024-01-30T10:01:57;102663.69;;;9.31;100.00
48630;BME280;34426;52.180;4.462;2024-01-30T10:04:22;102651.66;;;9.24;100.00
48630;BME280;34426;52.180;4.462;2024-01-30T10:06:48;102654.47;;;9.24;100.00
48630;BME280;34426;52.180;4.462;2024-01-30T10:09:13;102665.84;;;9.22;100.00
48630;BME280;34426;52.180;4.462;2024-01-30T10:11:39;102655.97;;;9.20;100.00
48630;BME280;34426;52.180;4.462;2024-01-30T10:14:04;102658.97;;;9.25;100.00
48630;BME280;34426;52.180;4.462;2024-01-30T10:16:30;102660.25;;;9.22;100.00
48630;BME280;34426;52.180;4.462;2024-01-30T10:18:57;102653.59;;;9.17;100.00
48630;BME280;34426;52.180;4.462;2024-01-30T10:21:23;102668.84;;;9.14;100.00
48630;BME280;34426;52.180;4.462;2024-01-30T10:23:49;102668.19;;;9.12;100.00
48630;BME280;34426;52.180;4.462;2024-01-30T10:26:16;102660.47;;;9.14;100.00
48630;BME280;34426;52.180;4.462;2024-01-30T10:28:41;102671.00;;;9.12;100.00
48630;BME280;34426;52.180;4.462;2024-01-30T10:31:07;102660.72;;;9.06;100.00
48630;BME280;34426;52.180;4.462;2024-01-30T10:33:32;102693.34;;;8.99;100.00
48630;BME280;34426;52.180;4.462;2024-01-30T10:36:01;102661.13;;;9.03;100.00
48630;BME280;34426;52.180;4.462;2024-01-30T10:38:28;102669.72;;;9.08;100.00
48630;BME280;34426;52.180;4.462;2024-01-30T10:40:56;102671.22;;;9.04;100.00
48630;BME280;34426;52.180;4.462;2024-01-30T10:43:22;102665.00;;;8.95;100.00
48630;BME280;34426;52.180;4.462;2024-01-30T10:45:50;102694.19;;;8.93;100.00
48630;BME280;34426;52.180;4.462;2024-01-30T10:48:18;102697.59;;;8.82;100.00
48630;BME280;34426;52.180;4.462;2024-01-30T10:50:48;102692.66;;;8.84;100.00
48630;BME280;34426;52.180;4.462;2024-01-30T10:53:17;102701.44;;;8.81;100.00
48630;BME280;34426;52.180;4.462;2024-01-30T10:55:44;102691.97;;;8.68;100.00
48630;BME280;34426;52.180;4.462;2024-01-30T10:58:11;102691.56;;;8.65;100.00
48630;BME280;34426;52.180;4.462;2024-01-30T11:00:37;102700.13;;;8.63;100.00
48630;BME280;34426;52.180;4.462;2024-01-30T11:03:04;102699.25;;;8.56;100.00
48630;BME280;34426;52.180;4.462;2024-01-30T11:05:33;102692.38;;;8.59;100.00
48630;BME280;34426;52.180;4.462;2024-01-30T11:07:58;102692.38;;;8.59;100.00
48630;BME280;34426;52.180;4.462;2024-01-30T11:10:26;102710.41;;;8.56;100.00
48630;BME280;34426;52.180;4.462;2024-01-30T11:12:51;102715.94;;;8.50;100.00
48630;BME280;34426;52.180;4.462;2024-01-30T11:15:17;102706.09;;;8.54;100.00
48630;BME280;34426;52.180;4.462;2024-01-30T11:17:43;102692.38;;;8.59;100.00
48630;BME280;34426;52.180;4.462;2024-01-30T11:20:10;102698.41;;;8.62;100.00
48630;BME280;34426;52.180;4.462;2024-01-30T11:22:36;102689.41;;;8.74;100.00
48630;BME280;34426;52.180;4.462;2024-01-30T11:25:01;102702.75;;;8.85;100.00
48630;BME280;34426;52.180;4.462;2024-01-30T11:27:28;102705.94;;;8.82;100.00
48630;BME280;34426;52.180;4.462;2024-01-30T11:29:53;102717.75;;;8.84;100.00
48630;BME280;34426;52.180;4.462;2024-01-30T11:32:26;102702.75;;;8.85;100.00
48630;BME280;34426;52.180;4.462;2024-01-30T11:34:51;102703.16;;;8.82;100.00
48630;BME280;34426;52.180;4.462;2024-01-30T11:37:20;102705.94;;;8.82;100.00
48630;BME280;34426;52.180;4.462;2024-01-30T11:39:48;102699.31;;;8.83;100.00
48630;BME280;34426;52.180;4.462;2024-01-30T11:42:13;102700.41;;;8.88;100.00
48630;BME280;34426;52.180;4.462;2024-01-30T11:44:41;102704.88;;;8.83;100.00
48630;BME280;34426;52.180;4.462;2024-01-30T11:47:06;102717.13;;;8.82;100.00
48630;BME280;34426;52.180;4.462;2024-01-30T11:49:32;102703.34;;;8.74;100.00
48630;BME280;34426;52.180;4.462;2024-01-30T11:51:58;102709.16;;;8.65;100.00
48630;BME280;34426;52.180;4.462;2024-01-30T11:54:23;102708.28;;;8.65;100.00
48630;BME280;34426;52.180;4.462;2024-01-30T11:56:48;102717.53;;;8.65;100.00
48630;BME280;34426;52.180;4.462;2024-01-30T11:59:14;102707.84;;;8.61;100.00
48630;BME280;34426;52.180;4.462;2024-01-30T12:01:41;102713.41;;;8.68;100.00
48630;BME280;34426;52.180;4.462;2024-01-30T12:04:07;102723.13;;;8.79;100.00
48630;BME280;34426;52.180;4.462;2024-01-30T12:06:33;102717.34;;;8.87;100.00
48630;BME280;34426;52.180;4.462;2024-01-30T12:08:59;102718.00;;;8.89;100.00
48630;BME280;34426;52.180;4.462;2024-01-30T12:11:25;102726.78;;;8.86;100.00
48630;BME280;34426;52.180;4.462;2024-01-30T12:13:51;102727.84;;;8.85;100.00
48630;BME280;34426;52.180;4.462;2024-01-30T12:16:18;102717.75;;;8.84;100.00
48630;BME280;34426;52.180;4.462;2024-01-30T12:18:45;102719.91;;;8.82;100.00
48630;BME280;34426;52.180;4.462;2024-01-30T12:21:10;102732.38;;;8.86;100.00
48630;BME280;34426;52.180;4.462;2024-01-30T12:23:36;102722.06;;;8.86;100.00
48630;BME280;34426;52.180;4.462;2024-01-30T12:26:01;102736.81;;;8.74;100.00
48630;BME280;34426;52.180;4.462;2024-01-30T12:28:28;102727.38;;;8.75;100.00
48630;BME280;34426;52.180;4.462;2024-01-30T12:30:55;102731.47;;;8.72;100.00
48630;BME280;34426;52.180;4.462;2024-01-30T12:33:21;102734.25;;;8.72;100.00
48630;BME280;34426;52.180;4.462;2024-01-30T12:35:48;102749.69;;;8.61;100.00
48630;BME280;34426;52.180;4.462;2024-01-30T12:38:13;102739.16;;;8.57;100.00
48630;BME280;34426;52.180;4.462;2024-01-30T12:40:39;102744.53;;;8.58;100.00